COOK1: Arkansas River Nr Coolidge, KS

                                SHEF ID:       COOK1     ARKANSAS R NR COOLIDGE, KS
STATION TYPE:
Regulating: Stage = 8.00, Flow = 2050

PRECIP STAGE STAGE(2) RIV-FLOW WTR-TEMP CONDUCT BAT-LOAD
in ft ft cfs F umho/cm volt
Ccp-Rev Ccp-Rev Ccp-Rev Ccp-Rev Ccp-Rev Ccp-Rev Ccp-Rev
(America/Chicago)
06/25 00:00 0.00 2.57 2.66 60 77.13 5693 12.95
06/25 01:00 0.00 2.58 2.67 61 76.15 5728 12.95
06/25 02:00 0.00 2.58 2.67 61 75.43 5751 12.89
06/25 03:00 0.00 2.58 2.67 61 74.73 5760 12.89
06/25 04:00 0.00 2.56 2.66 59 73.99 5762 12.89
06/25 05:00 0.00 2.56 2.66 59 72.97 5764 12.89
06/25 06:00 0.00 2.56 2.66 59 71.91 5765 12.89
06/25 07:00 0.00 2.55 2.65 58 71.04 5773 12.83
06/25 08:00 0.00 2.56 2.66 59 70.57 5796 12.89
06/25 09:00 0.00 2.56 2.66 59 71.26 5821 12.89
06/25 10:00 0.00 2.55 2.66 58 72.93 5823 13.00
06/25 11:00 0.00 2.55 2.68 58 75.24 5819 13.42
06/25 12:00 0.00 2.55 2.66 58 77.72 5837 13.71
06/25 13:00 0.00 2.56 2.66 59 80.44 5843 13.71
06/25 14:00 0.00 2.56 2.68 59 82.78 5846 13.59
06/25 15:00 0.00 2.57 2.68 60 84.00 5841 13.65
06/25 16:00 0.00 2.58 2.69 61 84.49 5812 13.59
06/25 17:00 0.00 2.58 2.69 61 85.17 5782 13.48
06/25 18:00 0.00 2.57 2.69 60 85.96 5749 13.36
06/25 19:00 0.00 2.57 2.67 60 85.71 5688 13.12
06/25 20:00 0.00 2.56 2.67 59 84.81 5657 13.12
06/25 21:00 0.00 2.56 2.65 59 83.34 5668 13.07
06/25 22:00 0.00 2.58 2.69 61 82.06 5695 13.00
06/25 23:00 ---- ---- ---- ---- ---- ---- ----
Data processed at Wed 26Jun2024 04:30 GMT

Parsing this webpage?

Checkout our new Data API! CWMSDataAPI (CDA)

Timeseries IDs (TSIDs)

TSIDs used from left to right in the data table
COOL.Precip-Inc.Total.1Hour.1Hour.Ccp-Rev
COOL.Stage.Inst.1Hour.0.Ccp-Rev
COOL.Stage-Alt.Inst.1Hour.0.Ccp-Rev
COOL.Flow.Inst.1Hour.0.Ccp-Rev
COOL.Temp-Water.Inst.1Hour.0.Ccp-Rev
COOL.Cond.Inst.1Hour.0.Ccp-Rev
COOL.Volt-Battery Load.Inst.1Hour.0.Ccp-Rev

                            

All information presented herein is the property of the government of the United States of America and may be revised or deleted at any time without prior notice. Dissemination of this information without the expressed written consent of the Public Affairs Office, Tulsa District U.S. Army Corps of Engineers is strictly prohibited. These data are gathered electronically and, as presented, have NOT undergone any form of quality control. These data are NOT guaranteed to be valid or correct.